Time;durP1;ratioP1;P1;durP2;ratioP2;P2;SDS_P1;SDS_P2;PMS_P1;PMS_P2;Temp;Humidity;BMP_temperature;BMP_pressure;BME280_temperature;BME280_humidity;BME280_pressure;Samples;Min_cycle;Max_cycle;Signal;HPM_P1;HPM_P2
2021/05/15 00:00:44;;;;;;;19.88;18.50;;;;;;;11.15;100.00;100749.16;5024878;28;20045;-91
2021/05/15 00:03:10;;;;;;;20.33;18.83;;;;;;;10.95;100.00;100752.69;5024477;28;20625;-90
2021/05/15 00:05:37;;;;;;;24.70;21.77;;;;;;;10.90;100.00;100743.69;5024870;28;20107;-92
2021/05/15 00:08:04;;;;;;;21.13;19.42;;;;;;;10.90;100.00;100743.69;5026637;28;20053;-91
2021/05/15 00:10:32;;;;;;;20.10;18.70;;;;;;;11.12;100.00;100753.03;5026321;28;20088;-90
2021/05/15 00:12:59;;;;;;;20.60;19.20;;;;;;;10.96;100.00;100746.34;5025010;28;20488;-91
2021/05/15 00:15:26;;;;;;;21.77;19.90;;;;;;;10.86;100.00;100739.78;5024489;28;20050;-90
2021/05/15 00:17:53;;;;;;;20.92;19.52;;;;;;;10.85;100.00;100740.81;5024313;28;20054;-91
2021/05/15 00:20:19;;;;;;;20.77;19.38;;;;;;;10.85;100.00;100740.81;5021971;28;20096;-91
2021/05/15 00:22:46;;;;;;;20.27;18.73;;;;;;;10.87;100.00;100730.81;5030671;28;20059;-91
2021/05/15 00:25:17;;;;;;;19.88;18.40;;;;;;;10.60;100.00;100728.19;5028960;28;20073;-91
2021/05/15 00:27:44;;;;;;;18.75;17.65;;;;;;;10.66;100.00;100724.72;5024155;28;20059;-90
2021/05/15 00:30:14;;;;;;;19.58;18.38;;;;;;;10.49;100.00;100736.75;5023550;28;20042;-89
2021/05/15 00:32:41;;;;;;;22.48;20.98;;;;;;;10.41;100.00;100737.81;5015776;28;20060;-90
2021/05/15 00:35:09;;;;;;;20.63;19.23;;;;;;;10.32;100.00;100737.19;5020737;28;20049;-91
2021/05/15 00:37:36;;;;;;;21.73;20.02;;;;;;;10.24;100.00;100731.22;5023296;28;20050;-90
2021/05/15 00:40:03;;;;;;;25.63;23.85;;;;;;;10.30;100.00;100733.91;5019813;28;20139;-90
2021/05/15 00:42:30;;;;;;;21.70;20.20;;;;;;;10.08;100.00;100730.59;5026856;28;20099;-92
2021/05/15 00:44:57;;;;;;;22.92;21.00;;;;;;;10.17;100.00;100723.25;5023159;28;20050;-90
2021/05/15 00:47:24;;;;;;;21.23;19.60;;;;;;;10.34;100.00;100726.34;5032778;28;20052;-89
2021/05/15 00:49:52;;;;;;;20.92;19.15;;;;;;;10.23;100.00;100713.66;5022258;28;20064;-91
2021/05/15 00:52:20;;;;;;;21.65;20.02;;;;;;;10.09;100.00;100716.28;5025971;28;20069;-90
2021/05/15 00:54:48;;;;;;;19.40;18.13;;;;;;;10.00;100.00;100717.50;5018323;28;20049;-90
2021/05/15 00:57:14;;;;;;;20.20;18.73;;;;;;;9.84;100.00;100713.41;5020935;28;20102;-90
2021/05/15 00:59:41;;;;;;;20.83;19.33;;;;;;;9.84;100.00;100723.22;5023626;28;20045;-90
2021/05/15 01:02:11;;;;;;;20.65;19.08;;;;;;;9.78;100.00;100719.50;5023727;28;20064;-91
2021/05/15 01:04:38;;;;;;;22.13;20.35;;;;;;;9.79;100.00;100718.47;5021697;28;20567;-90
2021/05/15 01:07:08;;;;;;;20.73;19.05;;;;;;;9.80;100.00;100716.66;5024610;28;20129;-90
2021/05/15 01:09:35;;;;;;;20.83;19.52;;;;;;;9.85;100.00;100717.69;5016285;28;20522;-91
2021/05/15 01:12:04;;;;;;;20.95;19.45;;;;;;;9.86;100.00;100716.69;5021642;28;20042;-90
2021/05/15 01:14:31;;;;;;;20.70;19.27;;;;;;;9.97;100.00;100719.75;5014098;28;20045;-89
2021/05/15 01:16:58;;;;;;;22.45;21.02;;;;;;;10.02;100.00;100717.31;5023575;28;20053;-91
2021/05/15 01:19:25;;;;;;;22.27;20.88;;;;;;;9.85;100.00;100722.19;5024411;28;20049;-89
2021/05/15 01:21:53;;;;;;;22.55;21.00;;;;;;;9.78;100.00;100724.81;5029323;28;20136;-89
2021/05/15 01:24:19;;;;;;;22.38;20.75;;;;;;;9.77;100.00;100715.25;5030739;28;20118;-90
2021/05/15 01:26:46;;;;;;;23.40;21.63;;;;;;;9.85;100.00;100707.06;5022967;28;20045;-90
2021/05/15 01:29:12;;;;;;;23.83;21.80;;;;;;;9.93;100.00;100700.78;5013277;28;20053;-91
2021/05/15 01:31:39;;;;;;;23.77;22.00;;;;;;;10.02;100.00;100706.72;5021643;28;20050;-90
2021/05/15 01:34:07;;;;;;;23.25;21.67;;;;;;;10.04;100.00;100708.13;5021051;28;20052;-89
2021/05/15 01:36:39;;;;;;;24.77;22.88;;;;;;;10.11;100.00;100705.50;5021786;28;20050;-90
2021/05/15 01:39:07;;;;;;;;;;;;;;;10.18;100.00;100697.53;5014917;28;20062;-90
2021/05/15 01:41:33;;;;;;;21.92;20.35;;;;;;;10.05;100.00;100708.97;5013905;28;20059;-91
2021/05/15 01:44:00;;;;;;;21.45;20.05;;;;;;;9.71;100.00;100712.53;5018235;28;20495;-91
2021/05/15 01:46:26;;;;;;;22.60;20.90;;;;;;;9.68;100.00;100710.28;5020830;28;20109;-89
2021/05/15 01:48:53;;;;;;;20.73;19.42;;;;;;;9.49;100.00;100719.81;5021521;28;20049;-90
2021/05/15 01:51:19;;;;;;;21.55;19.77;;;;;;;9.69;100.00;100718.06;5026478;28;21098;-90
2021/05/15 01:53:48;;;;;;;19.77;18.48;;;;;;;9.93;100.00;100708.72;5022996;28;20396;-90
2021/05/15 01:56:17;;;;;;;21.25;19.73;;;;;;;10.08;100.00;100706.72;5020414;28;20084;-90
2021/05/15 01:58:45;;;;;;;20.77;19.48;;;;;;;9.45;100.00;100695.56;5020412;28;20042;-89
2021/05/15 02:01:12;;;;;;;20.73;19.40;;;;;;;9.65;100.00;100706.19;5035030;23;20568;-80
2021/05/15 02:03:40;;;;;;;21.13;19.67;;;;;;;9.49;100.00;100707.38;5020811;28;20486;-80
2021/05/15 02:06:06;;;;;;;21.02;19.48;;;;;;;9.67;100.00;100706.81;5021919;28;20072;-80
2021/05/15 02:08:33;;;;;;;23.95;22.15;;;;;;;9.79;100.00;100699.09;5025159;28;20128;-80
2021/05/15 02:11:00;;;;;;;21.30;19.90;;;;;;;9.67;100.00;100698.06;5018435;28;20065;-80
2021/05/15 02:13:27;;;;;;;21.30;19.40;;;;;;;9.44;100.00;100699.22;5017255;28;20406;-80
2021/05/15 02:15:55;;;;;;;21.45;20.02;;;;;;;9.54;100.00;100709.44;5022575;28;20042;-79
2021/05/15 02:18:22;;;;;;;22.90;21.20;;;;;;;9.72;100.00;100707.06;5022368;28;20054;-80
2021/05/15 02:20:49;;;;;;;24.58;22.67;;;;;;;9.47;100.00;100708.59;5025277;28;20045;-80
2021/05/15 02:23:15;;;;;;;19.73;18.45;;;;;;;9.27;100.00;100725.25;5022926;28;20468;-80
2021/05/15 02:25:43;;;;;;;18.73;17.48;;;;;;;9.58;100.00;100727.41;5020019;28;20075;-80
2021/05/15 02:28:09;;;;;;;18.17;16.98;;;;;;;9.70;100.00;100738.25;5024898;28;20057;-79
2021/05/15 02:30:37;;;;;;;19.17;17.90;;;;;;;9.91;100.00;100737.28;5021575;28;20045;-80
2021/05/15 02:33:04;;;;;;;19.05;17.95;;;;;;;9.91;100.00;100737.28;5022907;28;20049;-80
2021/05/15 02:35:30;;;;;;;18.20;17.20;;;;;;;9.98;100.00;100735.47;5021805;28;20060;-80
2021/05/15 02:37:58;;;;;;;19.65;18.40;;;;;;;9.89;100.00;100733.19;5031667;28;20065;-79
2021/05/15 02:40:25;;;;;;;18.42;17.33;;;;;;;9.82;100.00;100736.66;5025450;28;20042;-80
2021/05/15 02:42:52;;;;;;;20.10;18.90;;;;;;;9.71;100.00;100739.06;5027132;28;20478;-81
2021/05/15 02:45:20;;;;;;;18.98;17.85;;;;;;;9.61;100.00;100736.78;5020247;28;20188;-80
2021/05/15 02:47:48;;;;;;;21.95;20.38;;;;;;;9.55;100.00;100735.75;5019991;28;20097;-80
2021/05/15 02:50:15;;;;;;;18.35;17.15;;;;;;;9.72;100.00;100740.72;5018078;28;20045;-80
2021/05/15 02:53:03;;;;;;;21.20;19.80;;;;;;;9.69;100.00;100731.31;5056910;23;20060;-92
2021/05/15 02:55:36;;;;;;;20.35;18.60;;;;;;;9.81;100.00;100737.69;5049431;28;20060;-89
2021/05/15 02:58:04;;;;;;;19.05;17.73;;;;;;;9.89;100.00;100730.53;5046161;28;20057;-89
2021/05/15 03:00:33;;;;;;;19.60;18.40;;;;;;;9.59;100.00;100734.34;5049371;28;20426;-90
2021/05/15 03:03:01;;;;;;;20.52;19.13;;;;;;;9.91;100.00;100725.88;5049785;28;20045;-90
2021/05/15 03:05:48;;;;;;;20.05;18.75;;;;;;;9.99;100.00;100728.34;5049086;28;20090;-90
2021/05/15 03:08:16;;;;;;;19.52;18.42;;;;;;;10.14;100.00;100731.63;5030989;28;20116;-90
2021/05/15 03:10:43;;;;;;;20.85;19.45;;;;;;;10.16;100.00;100723.44;5044811;28;20052;-90
2021/05/15 03:13:11;;;;;;;18.20;17.20;;;;;;;10.19;100.00;100729.16;5049775;28;20053;-90
2021/05/15 03:15:38;;;;;;;18.52;17.38;;;;;;;10.29;100.00;100724.31;5049811;28;20053;-89
2021/05/15 03:18:10;;;;;;;19.20;17.20;;;;;;;10.14;100.00;100715.69;5049997;28;20052;-90
2021/05/15 03:20:37;;;;;;;19.52;18.23;;;;;;;10.20;100.00;100717.53;5049301;28;20052;-89
2021/05/15 03:23:04;;;;;;;18.60;17.48;;;;;;;10.15;100.00;100716.50;5030652;28;20049;-91
2021/05/15 03:25:34;;;;;;;19.15;17.98;;;;;;;10.38;100.00;100718.78;5046594;28;20049;-91
2021/05/15 03:28:04;;;;;;;20.02;18.45;;;;;;;10.33;100.00;100716.75;5051584;28;20131;-91
2021/05/15 03:30:31;;;;;;;19.00;17.90;;;;;;;10.35;100.00;100721.84;5053611;28;20056;-89
2021/05/15 03:33:00;;;;;;;19.23;18.13;;;;;;;10.38;100.00;100724.09;5053270;28;20045;-93
2021/05/15 03:35:30;;;;;;;18.90;17.70;;;;;;;10.30;100.00;100717.16;5053277;28;20045;-89
2021/05/15 03:37:59;;;;;;;20.23;18.67;;;;;;;10.31;100.00;100724.91;5054304;28;20502;-91
2021/05/15 03:40:26;;;;;;;19.77;18.38;;;;;;;10.40;100.00;100722.06;5053485;28;20502;-91
2021/05/15 03:42:55;;;;;;;20.75;19.35;;;;;;;10.47;100.00;100721.06;5053692;28;20053;-92
2021/05/15 03:45:21;;;;;;;19.60;18.20;;;;;;;10.50;100.00;100725.97;5052663;28;20156;-91
2021/05/15 03:47:48;;;;;;;19.73;18.42;;;;;;;10.55;100.00;100715.50;5052302;28;20045;-91
2021/05/15 03:50:14;;;;;;;18.67;17.42;;;;;;;10.78;100.00;100728.38;5052761;28;20114;-92
2021/05/15 03:52:45;;;;;;;19.45;17.92;;;;;;;10.75;100.00;100717.34;5052302;28;20118;-89
2021/05/15 03:55:12;;;;;;;18.73;17.38;;;;;;;10.62;100.00;100726.16;5052970;28;20045;-90
2021/05/15 03:57:40;;;;;;;18.20;17.10;;;;;;;10.70;100.00;100725.09;5053437;28;20052;-89
2021/05/15 04:00:09;;;;;;;18.23;17.00;;;;;;;10.54;100.00;100729.00;5053153;28;20076;-90
2021/05/15 04:02:36;;;;;;;18.25;17.05;;;;;;;10.43;100.00;100724.31;5053084;28;20045;-89
2021/05/15 04:05:06;;;;;;;17.75;16.65;;;;;;;10.69;100.00;100726.94;5051576;28;20049;-91
2021/05/15 04:07:44;;;;;;;17.95;16.67;;;;;;;10.84;100.00;100720.59;5040796;28;20073;-89
2021/05/15 04:10:11;;;;;;;17.90;16.65;;;;;;;10.90;100.00;100725.91;5052680;28;20048;-90
2021/05/15 04:12:47;;;;;;;18.20;17.10;;;;;;;10.98;100.00;100736.31;5052282;28;20045;-90
2021/05/15 04:15:25;;;;;;;18.33;17.15;;;;;;;11.21;100.00;100733.16;5051227;28;20049;-90
2021/05/15 04:17:54;;;;;;;19.70;18.48;;;;;;;11.34;100.00;100734.16;5041470;28;20049;-90
2021/05/15 04:20:22;;;;;;;19.02;17.83;;;;;;;11.36;100.00;100730.25;5053534;28;20468;-90
2021/05/15 04:22:57;;;;;;;18.92;17.73;;;;;;;11.45;100.00;100731.66;5052806;28;20045;-90
2021/05/15 04:25:25;;;;;;;19.55;18.33;;;;;;;11.66;100.00;100738.50;5053039;28;20053;-90
2021/05/15 04:27:53;;;;;;;19.45;18.45;;;;;;;11.79;100.00;100734.16;5052718;28;20056;-91
2021/05/15 04:30:22;;;;;;;18.85;17.70;;;;;;;12.02;100.00;100731.00;5052621;28;20441;-91
2021/05/15 04:32:50;;;;;;;18.83;17.42;;;;;;;11.98;100.00;100738.59;5052212;28;20045;-91
2021/05/15 04:35:39;;;;;;;19.67;18.48;;;;;;;12.26;100.00;100730.19;5052486;28;20553;-91
2021/05/15 04:38:15;;;;;;;20.00;18.45;;;;;;;12.32;100.00;100739.97;5035449;28;20508;-89
2021/05/15 04:40:42;;;;;;;20.88;19.77;;;;;;;12.56;100.00;100729.56;5051504;28;20142;-91
2021/05/15 04:45:51;;;;;;;20.67;19.27;;;;;;;12.68;100.00;100732.28;5050979;28;20049;-89
2021/05/15 04:48:17;;;;;;;20.40;19.30;;;;;;;12.60;100.00;100730.72;5052122;28;20072;-89
2021/05/15 04:50:44;;;;;;;22.30;20.73;;;;;;;12.70;100.00;100725.72;5051856;28;20052;-89
2021/05/15 04:53:13;;;;;;;21.10;19.90;;;;;;;12.72;100.00;100728.97;5050980;28;20045;-90
2021/05/15 04:55:41;;;;;;;22.08;20.88;;;;;;;12.89;100.00;100734.56;5051715;28;20052;-90
2021/05/15 04:58:09;;;;;;;19.70;18.50;;;;;;;13.13;100.00;100729.38;5051429;28;20053;-90
2021/05/15 05:00:35;;;;;;;23.50;21.88;;;;;;;13.16;100.00;100729.78;5051769;28;20409;-88
2021/05/15 05:03:05;;;;;;;22.95;21.42;;;;;;;13.23;100.00;100730.50;5048006;28;20493;-89
2021/05/15 05:05:32;;;;;;;23.30;21.67;;;;;;;13.38;100.00;100734.69;5051327;28;20505;-90
2021/05/15 05:07:59;;;;;;;22.52;20.90;;;;;;;13.52;100.00;100738.78;5051898;28;20416;-89
2021/05/15 05:10:39;;;;;;;21.52;20.20;;;;;;;13.42;100.00;100735.84;5051303;28;20053;-90
2021/05/15 05:13:17;;;;;;;22.23;20.92;;;;;;;13.69;100.00;100734.47;5051754;28;20057;-91
2021/05/15 05:15:48;;;;;;;22.10;20.65;;;;;;;13.99;100.00;100736.31;5050952;28;20052;-90
2021/05/15 05:18:15;;;;;;;23.17;21.98;;;;;;;14.11;100.00;100734.50;5051025;28;20045;-89
2021/05/15 05:20:42;;;;;;;23.63;22.23;;;;;;;14.23;100.00;100739.06;5051140;28;20061;-90
2021/05/15 05:23:11;;;;;;;22.67;21.42;;;;;;;14.27;100.00;100730.34;5051967;28;20059;-92
2021/05/15 05:25:41;;;;;;;24.42;23.13;;;;;;;14.46;100.00;100730.25;5051026;28;20059;-89
2021/05/15 05:28:08;;;;;;;25.02;23.30;;;;;;;14.57;100.00;100726.81;5050824;28;20056;-93
2021/05/15 05:30:35;;;;;;;23.20;22.00;;;;;;;14.69;100.00;100729.50;5050738;28;20426;-90
2021/05/15 05:33:12;;;;;;;24.23;22.83;;;;;;;14.89;100.00;100728.09;5050908;28;20053;-90
2021/05/15 05:35:39;;;;;;;27.42;25.92;;;;;;;14.87;100.00;100719.47;5049664;28;20052;-90
2021/05/15 05:38:06;;;;;;;26.88;25.00;;;;;;;15.21;100.00;100726.88;5050509;28;20051;-89
2021/05/15 05:40:33;;;;;;;30.02;28.13;;;;;;;15.23;100.00;100733.59;5049958;28;20117;-90
2021/05/15 05:43:02;;;;;;;36.85;34.15;;;;;;;15.31;100.00;100730.56;5050532;28;20049;-89
2021/05/15 05:45:41;;;;;;;24.92;23.33;;;;;;;15.25;100.00;100734.19;5041066;28;20053;-90
2021/05/15 05:48:11;;;;;;;24.52;23.02;;;;;;;15.45;100.00;100725.75;5048822;28;20045;-89
2021/05/15 05:53:23;;;;;;;24.13;22.53;;;;;;;15.55;100.00;100727.81;5063256;28;20112;-90
2021/05/15 05:55:50;;;;;;;24.80;23.10;;;;;;;15.78;100.00;100727.75;5048863;28;20072;-91
2021/05/15 05:58:27;;;;;;;24.90;23.20;;;;;;;15.75;100.00;100732.78;5050164;28;20096;-91
2021/05/15 06:00:54;;;;;;;24.38;22.88;;;;;;;15.81;100.00;100734.50;5049669;28;20057;-91
2021/05/15 06:03:21;;;;;;;23.70;22.20;;;;;;;15.86;100.00;100723.88;5050493;28;20067;-90
2021/05/15 06:05:49;;;;;;;23.48;21.98;;;;;;;15.93;100.00;100721.84;5048879;28;20099;-92
2021/05/15 06:09:05;;;;;;;21.92;20.67;;;;;;;15.82;100.00;100716.56;5050145;28;20540;-90
2021/05/15 06:11:34;;;;;;;23.10;21.40;;;;;;;15.88;100.00;100713.72;5048254;28;20064;-90
2021/05/15 06:14:03;;;;;;;22.23;21.02;;;;;;;15.93;100.00;100713.00;5049682;28;20053;-90
2021/05/15 06:16:30;;;;;;;23.48;22.00;;;;;;;16.27;100.00;100708.47;5049414;28;20049;-90
2021/05/15 06:19:17;;;;;;;24.42;22.60;;;;;;;16.38;100.00;100707.59;5048643;28;20478;-89
2021/05/15 06:21:45;;;;;;;23.95;22.45;;;;;;;16.40;100.00;100707.34;5050075;28;20097;-90
2021/05/15 06:24:15;;;;;;;26.83;25.05;;;;;;;16.49;100.00;100700.53;5049806;28;20098;-90
2021/05/15 06:29:40;;;;;;;24.00;22.60;;;;;;;16.74;100.00;100680.50;5048398;28;20530;-91
2021/05/15 06:32:07;;;;;;;26.52;24.77;;;;;;;16.58;100.00;100676.78;5048340;28;20087;-91
2021/05/15 06:34:34;;;;;;;28.08;26.33;;;;;;;16.98;100.00;100681.91;5037014;28;20045;-90
2021/05/15 06:37:01;;;;;;;28.38;26.52;;;;;;;17.01;100.00;100672.56;5050982;28;20427;-89
2021/05/15 06:39:29;;;;;;;25.40;23.70;;;;;;;17.30;100.00;100675.84;5049541;28;20049;-90
2021/05/15 06:42:02;;;;;;;27.30;25.23;;;;;;;17.41;100.00;100658.78;5051676;28;20045;-90
2021/05/15 06:44:32;;;;;;;26.65;25.05;;;;;;;17.32;100.00;100654.94;5050695;28;20045;-92
2021/05/15 06:46:59;;;;;;;24.33;22.88;;;;;;;17.16;100.00;100656.66;5049875;28;20049;-91
2021/05/15 06:49:27;;;;;;;25.77;24.00;;;;;;;17.28;100.00;100654.63;5050147;28;20049;-90
2021/05/15 06:51:57;;;;;;;27.20;25.48;;;;;;;17.56;100.00;100652.78;5050748;28;20052;-91
2021/05/15 06:54:24;;;;;;;26.67;25.15;;;;;;;17.63;100.00;100650.69;5050412;28;20057;-91
2021/05/15 06:56:51;;;;;;;26.42;24.60;;;;;;;17.54;100.00;100636.09;5047969;28;20049;-92
2021/05/15 06:59:28;;;;;;;25.55;24.10;;;;;;;17.62;100.00;100654.44;5052317;28;20106;-91
2021/05/15 07:01:57;;;;;;;27.13;25.38;;;;;;;18.05;100.00;100642.75;5053519;28;20552;-91
2021/05/15 07:04:25;;;;;;;29.70;27.85;;;;;;;18.27;100.00;100647.19;5047517;28;20110;-90
2021/05/15 07:06:51;;;;;;;30.58;28.88;;;;;;;18.30;100.00;100641.31;5051790;28;20055;-92
2021/05/15 07:09:19;;;;;;;26.17;24.40;;;;;;;17.79;100.00;100640.91;5057313;28;20078;-91
2021/05/15 07:11:45;;;;;;;26.92;25.48;;;;;;;18.11;100.00;100634.72;5054855;28;20493;-91
2021/05/15 07:14:14;;;;;;;26.33;24.65;;;;;;;18.31;100.00;100637.56;5058744;28;20048;-91
2021/05/15 07:16:42;;;;;;;27.88;26.17;;;;;;;18.60;100.00;100632.59;5054974;28;20056;-90
2021/05/15 07:19:09;;;;;;;28.20;26.58;;;;;;;18.71;100.00;100628.09;5083912;22;20052;-80
2021/05/15 07:21:36;;;;;;;28.15;26.65;;;;;;;18.88;100.00;100630.59;5053738;28;20044;-78
2021/05/15 07:24:05;;;;;;;28.60;26.92;;;;;;;18.89;100.00;100622.28;5053328;28;20048;-79
2021/05/15 07:26:31;;;;;;;27.33;25.85;;;;;;;18.85;100.00;100623.91;5054607;28;20056;-80
2021/05/15 07:28:57;;;;;;;26.45;24.75;;;;;;;18.87;100.00;100619.03;5061546;28;20052;-79
2021/05/15 07:31:24;;;;;;;26.40;24.45;;;;;;;18.77;100.00;100621.69;5059041;28;20049;-79
2021/05/15 07:33:50;;;;;;;26.08;24.15;;;;;;;19.45;100.00;100635.09;5054050;28;20064;-80
2021/05/15 07:36:18;;;;;;;27.83;26.05;;;;;;;19.80;100.00;100631.66;5055166;28;20045;-80
2021/05/15 07:38:44;;;;;;;28.52;26.48;;;;;;;19.95;100.00;100640.81;5060241;28;20511;-80
2021/05/15 07:41:10;;;;;;;29.70;27.65;;;;;;;19.72;100.00;100632.19;5052218;28;20110;-80
2021/05/15 07:43:37;;;;;;;25.35;23.77;;;;;;;19.73;100.00;100633.00;5051004;28;20052;-81
2021/05/15 07:46:03;;;;;;;26.60;25.00;;;;;;;19.55;100.00;100637.81;5050219;28;20064;-79
2021/05/15 07:48:37;;;;;;;28.50;26.90;;;;;;;19.67;100.00;100632.19;5050709;28;20088;-80
2021/05/15 07:51:05;;;;;;;27.38;25.70;;;;;;;20.09;100.00;100631.09;5050831;28;20041;-81
2021/05/15 07:53:32;;;;;;;25.80;24.42;;;;;;;20.07;100.00;100634.06;5052936;28;20060;-80
2021/05/15 07:55:59;;;;;;;26.20;24.80;;;;;;;19.70;100.00;100628.13;5052397;28;20455;-80
2021/05/15 07:58:26;;;;;;;28.73;26.92;;;;;;;19.97;100.00;100627.88;5047515;28;20041;-80
2021/05/15 08:00:52;;;;;;;29.27;27.42;;;;;;;20.46;100.00;100627.28;5050995;28;20041;-80
2021/05/15 08:03:18;;;;;;;25.90;24.30;;;;;;;20.94;100.00;100628.47;5052184;28;20468;-80
2021/05/15 08:05:44;;;;;;;25.63;24.33;;;;;;;20.53;100.00;100625.94;5052229;28;20048;-80
2021/05/15 08:08:11;;;;;;;25.90;24.38;;;;;;;20.75;100.00;100622.88;5052649;28;20405;-80
2021/05/15 08:10:38;;;;;;;26.52;25.05;;;;;;;20.83;100.00;100612.59;5052760;28;20052;-80
2021/05/15 08:13:04;;;;;;;27.35;25.77;;;;;;;21.06;100.00;100625.47;5051100;28;20075;-80
2021/05/15 08:15:31;;;;;;;27.55;26.05;;;;;;;21.16;100.00;100624.59;5051931;28;20052;-80
2021/05/15 08:17:57;;;;;;;27.17;25.70;;;;;;;21.30;100.00;100622.06;5051862;28;20300;-80
2021/05/15 08:20:24;;;;;;;27.13;25.60;;;;;;;21.17;100.00;100626.19;5032162;28;20049;-80
2021/05/15 08:22:51;;;;;;;25.75;24.15;;;;;;;21.42;100.00;100614.44;5031794;28;20045;-80
2021/05/15 08:25:19;;;;;;;25.25;24.05;;;;;;;21.45;100.00;100612.03;5032546;28;20049;-79
2021/05/15 08:27:51;;;;;;;25.17;23.88;;;;;;;21.33;100.00;100610.69;5032343;28;20049;-79
2021/05/15 08:30:19;;;;;;;28.73;27.23;;;;;;;21.34;100.00;100607.72;5032182;28;20541;-80
2021/05/15 08:32:46;;;;;;;26.92;25.33;;;;;;;21.49;100.00;100617.66;5032558;28;20045;-80
2021/05/15 08:35:14;;;;;;;25.88;24.33;;;;;;;21.50;100.00;100617.38;5032811;28;20041;-80
2021/05/15 08:37:40;;;;;;;28.40;26.73;;;;;;;21.35;100.00;100616.63;5033355;28;20045;-80
2021/05/15 08:40:09;;;;;;;26.73;25.25;;;;;;;21.72;100.00;100608.84;5032501;28;20532;-79
2021/05/15 08:42:37;;;;;;;24.20;23.00;;;;;;;21.86;100.00;100611.69;5033682;28;20049;-80
2021/05/15 08:45:07;;;;;;;25.30;23.80;;;;;;;21.73;100.00;100601.53;5032537;28;20046;-80
2021/05/15 08:47:36;;;;;;;27.58;25.88;;;;;;;22.07;100.00;100598.78;5032307;28;20048;-80
2021/05/15 08:50:07;;;;;;;27.33;25.92;;;;;;;22.74;100.00;100604.28;5032211;28;20144;-80
2021/05/15 08:52:38;;;;;;;25.73;24.08;;;;;;;22.97;100.00;100597.28;5054704;23;20076;-90
2021/05/15 08:55:07;;;;;;;24.45;22.92;;;;;;;22.59;100.00;100599.88;5043374;28;20048;-90
2021/05/15 08:57:34;;;;;;;24.10;22.90;;;;;;;22.89;100.00;100595.19;5050634;28;20055;-93
2021/05/15 09:00:10;;;;;;;25.83;24.20;;;;;;;23.16;100.00;100594.56;5041888;28;20052;-94
2021/05/15 09:02:37;;;;;;;24.48;22.90;;;;;;;22.77;100.00;100603.72;5049603;28;20558;-93
2021/05/15 09:05:05;;;;;;;25.33;23.70;;;;;;;20.82;100.00;100598.31;5050898;28;20064;-91
2021/05/15 09:07:31;;;;;;;25.00;23.50;;;;;;;22.86;100.00;100593.84;5047837;28;20049;-93
2021/05/15 09:09:57;;;;;;;23.50;22.20;;;;;;;23.17;100.00;100596.16;5050479;28;20053;-93
2021/05/15 09:12:24;;;;;;;24.10;22.67;;;;;;;22.94;100.00;100589.72;5051717;28;20136;-92
2021/05/15 09:14:58;;;;;;;25.25;23.83;;;;;;;22.50;100.00;100596.19;5050660;28;20045;-93
2021/05/15 09:17:25;;;;;;;26.95;25.33;;;;;;;23.58;100.00;100600.19;5048474;28;20055;-92
2021/05/15 09:19:53;;;;;;;25.75;24.15;;;;;;;23.02;100.00;100593.66;5049052;28;20063;-92
2021/05/15 09:22:26;;;;;;;24.33;22.80;;;;;;;22.67;100.00;100600.34;5051058;28;20099;-92
2021/05/15 09:24:53;;;;;;;25.67;23.90;;;;;;;21.99;100.00;100604.00;5047974;28;20095;-93
2021/05/15 09:27:20;;;;;;;25.90;24.25;;;;;;;22.86;100.00;100601.19;5050297;28;20052;-89
2021/05/15 09:29:48;;;;;;;26.25;24.55;;;;;;;23.66;100.00;100594.91;5051664;28;20527;-92
2021/05/15 09:32:16;;;;;;;27.20;25.70;;;;;;;22.60;100.00;100595.25;5050239;28;20471;-91
2021/05/15 09:34:47;;;;;;;27.63;25.80;;;;;;;22.78;100.00;100589.06;5051253;28;20052;-91
2021/05/15 09:37:27;;;;;;;26.42;24.67;;;;;;;23.28;100.00;100596.84;5048844;28;20110;-93
2021/05/15 09:39:54;;;;;;;25.48;23.92;;;;;;;24.11;100.00;100580.84;5051269;28;20051;-91
2021/05/15 09:42:20;;;;;;;27.30;25.77;;;;;;;23.30;100.00;100584.59;5050105;28;20049;-93
2021/05/15 09:44:49;;;;;;;26.25;24.58;;;;;;;22.93;100.00;100582.66;5045070;28;20436;-90
2021/05/15 09:47:19;;;;;;;28.70;26.80;;;;;;;23.55;100.00;100580.69;5051131;28;20152;-92
2021/05/15 09:49:49;;;;;;;26.13;24.67;;;;;;;22.89;99.46;100578.13;5050355;28;20049;-91
2021/05/15 09:52:15;;;;;;;24.77;23.42;;;;;;;25.01;100.00;100578.50;5050331;28;20059;-92
2021/05/15 09:54:43;;;;;;;26.05;24.52;;;;;;;24.48;97.29;100574.47;5051152;28;20045;-92
2021/05/15 09:57:11;;;;;;;26.98;25.58;;;;;;;23.25;100.00;100570.31;5052592;28;20052;-90
2021/05/15 09:59:39;;;;;;;27.98;26.05;;;;;;;21.64;100.00;100565.41;5044970;28;20172;-91
2021/05/15 10:02:08;;;;;;;29.35;27.85;;;;;;;22.77;100.00;100568.53;5046782;28;20053;-92
2021/05/15 10:04:35;;;;;;;27.38;25.90;;;;;;;20.75;100.00;100560.00;5045679;28;20037;-92
2021/05/15 10:07:03;;;;;;;26.02;24.52;;;;;;;23.34;100.00;100554.22;5040929;28;20053;-90
2021/05/15 10:09:32;;;;;;;29.00;27.38;;;;;;;24.51;92.31;100554.84;5047855;28;20517;-91
2021/05/15 10:11:59;;;;;;;27.25;25.70;;;;;;;24.45;83.60;100559.59;5047111;28;20055;-91
2021/05/15 10:14:26;;;;;;;28.70;27.20;;;;;;;24.36;82.01;100555.94;5047869;28;20437;-91
2021/05/15 10:16:52;;;;;;;25.52;24.13;;;;;;;23.16;100.00;100561.25;5049499;28;20045;-91
2021/05/15 10:19:20;;;;;;;26.27;24.77;;;;;;;24.32;83.41;100548.69;5048360;28;20049;-91
2021/05/15 10:21:47;;;;;;;26.10;24.60;;;;;;;23.36;100.00;100550.13;5046961;28;20076;-90
2021/05/15 10:24:26;;;;;;;27.23;25.85;;;;;;;22.32;100.00;100546.34;5048102;28;20481;-88
2021/05/15 10:26:58;;;;;;;26.00;24.58;;;;;;;22.31;100.00;100536.63;5047334;28;20349;-90
2021/05/15 10:29:35;;;;;;;26.45;25.15;;;;;;;24.51;95.46;100533.16;5047691;28;20136;-90
2021/05/15 10:32:02;;;;;;;29.05;27.55;;;;;;;25.12;100.00;100531.78;5046264;28;20309;-90
2021/05/15 10:34:32;;;;;;;25.95;24.45;;;;;;;23.40;100.00;100529.44;5048136;28;20045;-92
2021/05/15 10:36:58;;;;;;;26.05;24.65;;;;;;;24.56;87.03;100524.06;5049206;28;20107;-90
2021/05/15 10:39:27;;;;;;;25.98;24.50;;;;;;;24.78;83.27;100520.59;5043464;28;20427;-90
2021/05/15 10:41:53;;;;;;;26.83;25.63;;;;;;;23.84;100.00;100520.03;5045543;28;20456;-91
2021/05/15 10:44:20;;;;;;;26.15;24.80;;;;;;;25.79;75.74;100519.28;5048147;28;20133;-90
2021/05/15 10:46:48;;;;;;;26.70;25.20;;;;;;;25.00;85.79;100507.06;5047564;28;20134;-90
2021/05/15 10:49:20;;;;;;;26.25;24.85;;;;;;;24.69;98.12;100509.69;5049270;28;20506;-92
2021/05/15 10:51:47;;;;;;;;;;;;;;;24.83;87.07;100505.00;5050381;28;20071;-90
2021/05/15 10:54:16;;;;;;;26.45;25.05;;;;;;;26.18;60.97;100496.72;5046686;28;20020;-91
2021/05/15 10:56:49;;;;;;;27.33;25.73;;;;;;;24.94;83.36;100500.16;5047095;28;20422;-90
2021/05/15 10:59:19;;;;;;;27.10;25.42;;;;;;;24.51;100.00;100489.72;5046839;28;20509;-91
2021/05/15 11:01:57;;;;;;;28.45;26.30;;;;;;;24.60;99.48;100485.16;5047833;28;20136;-91
2021/05/15 11:04:29;;;;;;;31.27;29.45;;;;;;;24.94;100.00;100488.47;5047950;28;20071;-91
2021/05/15 11:06:57;;;;;;;26.88;25.08;;;;;;;25.69;95.11;100478.72;5047872;28;20087;-91
2021/05/15 11:09:25;;;;;;;26.35;24.95;;;;;;;25.80;86.78;100477.34;5045773;28;20098;-90
2021/05/15 11:11:53;;;;;;;29.17;27.25;;;;;;;26.25;90.19;100475.28;5048127;28;20487;-90
2021/05/15 11:14:30;;;;;;;26.55;25.10;;;;;;;26.58;73.83;100463.97;5048542;28;20057;-91
2021/05/15 11:17:22;;;;;;;27.75;26.30;;;;;;;25.87;80.43;100455.97;5047067;28;20422;-90
2021/05/15 11:19:54;;;;;;;26.90;25.42;;;;;;;24.06;95.76;100458.88;5043137;28;20057;-89